Time;durP1;ratioP1;P1;durP2;ratioP2;P2;SDS_P1;SDS_P2;PMS_P1;PMS_P2;Temp;Humidity;BMP_temperature;BMP_pressure;BME280_temperature;BME280_humidity;BME280_pressure;Samples;Min_cycle;Max_cycle;Signal;HPM_P1;HPM_P2
2023/01/07 00:01:18;;;;;;;9.95;8.02;;;12.30;94.30;;;;;;5030558;28;20477;-66
2023/01/07 00:03:45;;;;;;;8.98;7.25;;;12.30;94.40;;;;;;5030071;28;20045;-66
2023/01/07 00:06:17;;;;;;;9.63;8.57;;;12.20;94.50;;;;;;5029889;28;20056;-66
2023/01/07 00:08:43;;;;;;;;;;;12.20;94.60;;;;;;5030943;28;20013;-66
2023/01/07 00:11:15;;;;;;;9.77;7.50;;;12.20;94.60;;;;;;5030742;28;19905;-66
2023/01/07 00:13:42;;;;;;;9.35;7.80;;;12.20;94.80;;;;;;5026793;28;20071;-66
2023/01/07 00:16:13;;;;;;;11.68;8.23;;;12.10;94.80;;;;;;5026980;28;20034;-66
2023/01/07 00:18:40;;;;;;;10.05;8.20;;;12.10;94.90;;;;;;5027696;28;20035;-65
2023/01/07 00:21:08;;;;;;;9.13;6.70;;;12.10;94.90;;;;;;5030404;28;20029;-65
2023/01/07 00:23:35;;;;;;;9.35;7.53;;;12.10;95.00;;;;;;5028619;28;20021;-65
2023/01/07 00:26:04;;;;;;;14.38;10.00;;;12.10;95.00;;;;;;5028161;28;20037;-66
2023/01/07 00:28:29;;;;;;;9.88;8.05;;;12.10;95.00;;;;;;5030421;28;20380;-65
2023/01/07 00:30:59;;;;;;;8.65;7.53;;;12.00;95.10;;;;;;5029215;28;20021;-66
2023/01/07 00:33:27;;;;;;;7.57;6.45;;;12.00;95.10;;;;;;5029364;28;20060;-65
2023/01/07 00:35:59;;;;;;;11.95;8.00;;;12.00;95.10;;;;;;5030124;28;20549;-65
2023/01/07 00:38:25;;;;;;;9.15;7.80;;;12.00;95.20;;;;;;5029129;28;20030;-65
2023/01/07 00:40:51;;;;;;;8.20;6.07;;;12.00;95.20;;;;;;5028644;28;20083;-65
2023/01/07 00:43:16;;;;;;;11.90;9.25;;;12.00;95.20;;;;;;5029677;28;20059;-65
2023/01/07 00:45:43;;;;;;;12.05;8.75;;;12.00;95.10;;;;;;5029747;28;20025;-65
2023/01/07 00:48:09;;;;;;;8.75;6.70;;;12.00;95.20;;;;;;5029033;28;20025;-65
2023/01/07 00:50:36;;;;;;;8.52;6.68;;;12.00;95.20;;;;;;5029739;28;20040;-65
2023/01/07 00:53:01;;;;;;;11.90;8.88;;;12.00;95.10;;;;;;5028349;28;20037;-65
2023/01/07 00:55:27;;;;;;;9.07;6.78;;;12.00;95.00;;;;;;5029116;28;20029;-65
2023/01/07 00:57:53;;;;;;;6.05;5.38;;;12.00;95.00;;;;;;5029537;28;20033;-65
2023/01/07 01:00:21;;;;;;;6.68;5.10;;;12.10;95.00;;;;;;5029856;28;20025;-65
2023/01/07 01:02:47;;;;;;;10.35;7.82;;;12.10;94.90;;;;;;5029274;28;20039;-65
2023/01/07 01:05:13;;;;;;;10.77;7.20;;;12.10;94.80;;;;;;5028494;28;20040;-65
2023/01/07 01:07:39;;;;;;;9.95;7.35;;;12.00;94.80;;;;;;5029827;28;20029;-65
2023/01/07 01:10:08;;;;;;;10.52;7.28;;;12.00;94.80;;;;;;5029957;28;20053;-65
2023/01/07 01:12:34;;;;;;;7.95;6.70;;;12.00;94.70;;;;;;5029032;28;20028;-65
2023/01/07 01:15:00;;;;;;;8.05;6.38;;;12.00;94.70;;;;;;5029504;28;20029;-65
2023/01/07 01:17:26;;;;;;;9.57;7.28;;;12.00;94.70;;;;;;5029487;28;20079;-66
2023/01/07 01:19:52;;;;;;;9.75;7.35;;;12.00;94.60;;;;;;5028450;28;20041;-65
2023/01/07 01:22:17;;;;;;;8.35;6.78;;;12.00;94.60;;;;;;5029895;28;20025;-65
2023/01/07 01:24:43;;;;;;;9.57;6.57;;;11.90;94.60;;;;;;5028057;28;20037;-65
2023/01/07 01:27:09;;;;;;;8.82;6.82;;;12.00;94.60;;;;;;5031365;28;20428;-66
2023/01/07 01:29:34;;;;;;;11.23;8.98;;;12.00;94.50;;;;;;5033238;28;20087;-65
2023/01/07 01:32:00;;;;;;;8.82;7.63;;;11.90;94.40;;;;;;5026635;28;20361;-66
2023/01/07 01:34:26;;;;;;;9.02;7.47;;;11.90;94.50;;;;;;5032717;28;20044;-65
2023/01/07 01:36:51;;;;;;;10.80;8.13;;;11.90;94.50;;;;;;5033801;28;20049;-66
2023/01/07 01:39:19;;;;;;;8.90;6.72;;;11.90;94.50;;;;;;5033341;28;20122;-65
2023/01/07 01:41:45;;;;;;;8.50;6.95;;;11.90;94.40;;;;;;5032800;28;20018;-65
2023/01/07 01:45:00;;;;;;;9.02;7.38;;;11.90;94.40;;;;;;5033228;28;20100;-66
2023/01/07 01:47:40;;;;;;;6.82;6.00;;;11.90;94.40;;;;;;5011006;28;20030;-65
2023/01/07 01:50:33;;;;;;;9.50;7.45;;;11.90;94.40;;;;;;5030956;28;20057;-65
2023/01/07 01:53:13;;;;;;;10.68;7.13;;;11.90;94.40;;;;;;5031560;28;20025;-65
2023/01/07 01:55:54;;;;;;;8.90;7.47;;;11.80;94.40;;;;;;5032957;28;20401;-66
2023/01/07 01:58:28;;;;;;;9.10;6.50;;;11.90;94.40;;;;;;5029543;28;20476;-66
2023/01/07 02:00:53;;;;;;;6.75;5.28;;;11.90;94.30;;;;;;5032437;28;20026;-66
2023/01/07 02:03:23;;;;;;;8.95;6.35;;;11.90;94.30;;;;;;5033495;28;20045;-66
2023/01/07 02:05:48;;;;;;;10.13;6.65;;;11.90;94.20;;;;;;5032890;28;20041;-66
2023/01/07 02:08:20;;;;;;;8.40;6.53;;;11.90;94.20;;;;;;5032269;28;20041;-65
2023/01/07 02:10:47;;;;;;;8.55;5.85;;;11.90;94.40;;;;;;5022087;28;20026;-65
2023/01/07 02:13:24;;;;;;;10.73;6.53;;;12.00;94.10;;;;;;5030605;28;20036;-65
2023/01/07 02:16:11;;;;;;;7.93;6.15;;;12.00;94.00;;;;;;5026794;28;20040;-65
2023/01/07 02:19:02;;;;;;;7.47;6.03;;;11.90;94.00;;;;;;5023498;28;20029;-66
2023/01/07 02:21:41;;;;;;;10.10;6.45;;;11.90;93.90;;;;;;5024610;28;20031;-65
2023/01/07 02:24:27;;;;;;;7.43;5.47;;;11.90;93.90;;;;;;5030891;28;20120;-65
2023/01/07 02:27:02;;;;;;;8.38;5.90;;;11.90;93.90;;;;;;5032440;28;20575;-66
2023/01/07 02:29:46;;;;;;;8.68;6.22;;;11.90;93.90;;;;;;5032265;28;20687;-66
2023/01/07 02:32:34;;;;;;;9.48;6.25;;;11.80;94.10;;;;;;5032169;28;20487;-65
2023/01/07 02:35:14;;;;;;;8.45;6.03;;;11.90;93.80;;;;;;5028664;28;20026;-65
2023/01/07 02:38:17;;;;;;;9.05;6.80;;;11.80;93.80;;;;;;5030957;28;20546;-66
2023/01/07 02:41:08;;;;;;;9.00;6.22;;;11.80;93.80;;;;;;5028722;28;20033;-66
2023/01/07 02:43:50;;;;;;;7.18;5.03;;;11.80;93.80;;;;;;5031929;28;20172;-65
2023/01/07 02:46:22;;;;;;;6.43;4.38;;;11.80;93.80;;;;;;5031730;28;20022;-66
2023/01/07 02:48:49;;;;;;;8.77;5.93;;;11.90;93.80;;;;;;5031231;28;20034;-66
2023/01/07 02:51:15;;;;;;;6.68;5.00;;;11.90;93.70;;;;;;5029191;28;20029;-66
2023/01/07 02:53:45;;;;;;;7.32;5.80;;;11.80;93.70;;;;;;5031814;28;20022;-66
2023/01/07 02:56:33;;;;;;;5.63;4.47;;;11.80;93.70;;;;;;5031485;28;20034;-65
2023/01/07 02:58:59;;;;;;;8.80;6.43;;;11.80;93.70;;;;;;5031292;28;20037;-66
2023/01/07 03:01:54;;;;;;;8.20;6.22;;;11.80;93.70;;;;;;5029946;28;20025;-66
2023/01/07 03:04:37;;;;;;;6.07;4.68;;;11.80;93.70;;;;;;5030745;28;20033;-65
2023/01/07 03:07:08;;;;;;;7.82;5.22;;;11.80;93.70;;;;;;5027017;28;20033;-65
2023/01/07 03:10:01;;;;;;;5.77;5.07;;;11.80;93.70;;;;;;5031801;28;20030;-66
2023/01/07 03:12:39;;;;;;;5.85;4.28;;;11.80;93.70;;;;;;5031157;28;20338;-66
2023/01/07 03:15:20;;;;;;;8.43;5.10;;;11.80;93.60;;;;;;5030380;28;20432;-66
2023/01/07 03:17:55;;;;;;;7.65;5.53;;;11.80;93.60;;;;;;5031463;28;20025;-65
2023/01/07 03:20:23;;;;;;;9.60;5.50;;;11.80;93.60;;;;;;5031461;28;20033;-65
2023/01/07 03:22:50;;;;;;;5.90;4.35;;;11.80;93.60;;;;;;5031181;28;20484;-65
2023/01/07 03:25:17;;;;;;;6.97;5.20;;;11.80;93.50;;;;;;5031519;28;20079;-66
2023/01/07 03:27:45;;;;;;;8.45;4.90;;;11.80;93.50;;;;;;5032090;28;20017;-65
2023/01/07 03:30:15;;;;;;;7.53;5.85;;;11.80;93.50;;;;;;5031384;28;20067;-66
2023/01/07 03:33:01;;;;;;;8.68;4.90;;;11.80;93.40;;;;;;5031193;28;20034;-66
2023/01/07 03:35:29;;;;;;;6.60;4.63;;;11.80;93.40;;;;;;5030006;28;20028;-66
2023/01/07 03:37:57;;;;;;;7.78;5.68;;;11.80;93.40;;;;;;5026207;28;20026;-65
2023/01/07 03:40:23;;;;;;;6.80;5.90;;;11.80;93.40;;;;;;5029438;28;20026;-66
2023/01/07 03:42:49;;;;;;;5.93;4.22;;;11.80;93.40;;;;;;5030658;28;20095;-66
2023/01/07 03:45:23;;;;;;;4.70;3.90;;;11.80;93.30;;;;;;5030653;28;20104;-66
2023/01/07 03:47:52;;;;;;;6.63;4.13;;;11.80;93.30;;;;;;5030322;28;20030;-66
2023/01/07 03:50:18;;;;;;;6.10;4.80;;;11.80;93.30;;;;;;5029504;28;20028;-65
2023/01/07 03:52:44;;;;;;;4.20;3.55;;;11.80;93.30;;;;;;5027665;28;20032;-65
2023/01/07 03:55:10;;;;;;;6.00;4.15;;;11.80;93.30;;;;;;5025175;28;20094;-65
2023/01/07 03:57:36;;;;;;;6.25;4.20;;;11.80;93.30;;;;;;5030638;28;20116;-65
2023/01/07 04:00:03;;;;;;;4.90;3.63;;;11.80;93.30;;;;;;5030904;28;20036;-65
2023/01/07 04:02:29;;;;;;;6.57;4.35;;;11.80;93.20;;;;;;5029875;28;20025;-65
2023/01/07 04:04:54;;;;;;;6.80;4.63;;;11.80;93.10;;;;;;5030900;28;20116;-65
2023/01/07 04:07:20;;;;;;;5.70;4.57;;;11.80;93.10;;;;;;5029824;28;20037;-65
2023/01/07 04:09:46;;;;;;;6.88;5.13;;;11.80;93.10;;;;;;5030121;28;20368;-65
2023/01/07 04:12:13;;;;;;;5.05;3.78;;;11.80;93.20;;;;;;5030357;28;20026;-66
2023/01/07 04:14:38;;;;;;;6.43;4.15;;;11.80;93.20;;;;;;5027718;28;20026;-66
2023/01/07 04:17:04;;;;;;;6.85;4.72;;;11.80;93.10;;;;;;5023213;28;20045;-66
2023/01/07 04:19:30;;;;;;;4.57;4.05;;;11.70;93.10;;;;;;5029067;28;20021;-66
2023/01/07 04:21:55;;;;;;;6.15;4.20;;;11.70;93.20;;;;;;5030793;28;20047;-67
2023/01/07 04:24:21;;;;;;;5.60;3.95;;;11.70;93.20;;;;;;5026220;28;20025;-64
2023/01/07 04:26:46;;;;;;;5.60;3.90;;;11.60;93.20;;;;;;5028172;28;20057;-65
2023/01/07 04:29:12;;;;;;;4.85;3.65;;;11.70;93.20;;;;;;5028302;28;20075;-65
2023/01/07 04:31:38;;;;;;;5.07;4.05;;;11.60;93.20;;;;;;5030268;28;20021;-65
2023/01/07 04:34:03;;;;;;;4.60;3.75;;;11.60;93.20;;;;;;5029877;28;20037;-65
2023/01/07 04:36:29;;;;;;;5.07;3.83;;;11.60;93.20;;;;;;5026852;28;20028;-66
2023/01/07 04:38:54;;;;;;;5.55;4.03;;;11.60;93.20;;;;;;5025235;28;20034;-66
2023/01/07 04:41:20;;;;;;;6.57;3.90;;;11.60;93.10;;;;;;5029515;28;20034;-66
2023/01/07 04:43:46;;;;;;;5.53;3.95;;;11.60;93.10;;;;;;5028978;28;20247;-66
2023/01/07 04:46:11;;;;;;;5.07;3.80;;;11.50;93.20;;;;;;5028408;28;20056;-66
2023/01/07 04:48:38;;;;;;;5.20;3.55;;;11.50;93.20;;;;;;5029850;28;20484;-65
2023/01/07 04:51:04;;;;;;;6.93;3.90;;;11.50;93.20;;;;;;5029937;28;20029;-65
2023/01/07 04:53:29;;;;;;;5.43;4.07;;;11.50;93.20;;;;;;5017031;28;20022;-65
2023/01/07 04:55:55;;;;;;;4.28;3.35;;;11.50;93.30;;;;;;5030166;28;20021;-65
2023/01/07 04:58:20;;;;;;;5.45;3.90;;;11.50;93.30;;;;;;5028497;28;20033;-65
2023/01/07 05:00:46;;;;;;;5.72;4.22;;;11.50;93.30;;;;;;5027879;28;20092;-67
2023/01/07 05:03:12;;;;;;;6.57;4.32;;;11.50;93.30;;;;;;5028942;28;20026;-66
2023/01/07 05:05:37;;;;;;;4.28;3.50;;;11.40;93.30;;;;;;5028443;28;20120;-66
2023/01/07 05:08:03;;;;;;;4.82;4.03;;;11.40;93.30;;;;;;5028692;28;20056;-66
2023/01/07 05:10:29;;;;;;;5.85;4.00;;;11.40;93.40;;;;;;5029213;28;20026;-66
2023/01/07 05:12:55;;;;;;;5.28;3.10;;;11.40;93.40;;;;;;5029311;28;20033;-66
2023/01/07 05:15:20;;;;;;;5.00;4.32;;;11.40;93.40;;;;;;5028924;28;20043;-66
2023/01/07 05:17:46;;;;;;;5.38;3.55;;;11.40;93.30;;;;;;5028801;28;20611;-66
2023/01/07 05:20:12;;;;;;;5.40;3.53;;;11.40;93.30;;;;;;5028484;28;20412;-66
2023/01/07 05:22:38;;;;;;;6.55;3.72;;;11.40;93.30;;;;;;5029371;28;20014;-66
2023/01/07 05:25:04;;;;;;;4.70;3.63;;;11.40;93.30;;;;;;5028059;28;20033;-66
2023/01/07 05:27:29;;;;;;;5.88;4.00;;;11.40;93.30;;;;;;5030167;28;20025;-65
2023/01/07 05:29:55;;;;;;;4.55;3.17;;;11.50;93.30;;;;;;5028872;28;20036;-66
2023/01/07 05:32:20;;;;;;;6.22;3.70;;;11.50;93.20;;;;;;5029089;28;20037;-65
2023/01/07 05:34:46;;;;;;;4.95;3.35;;;11.50;93.20;;;;;;5028993;28;20041;-65
2023/01/07 05:37:11;;;;;;;5.30;3.25;;;11.50;93.20;;;;;;5029398;28;20026;-65
2023/01/07 05:39:37;;;;;;;4.68;3.50;;;11.50;93.20;;;;;;5029274;28;20031;-66
2023/01/07 05:42:02;;;;;;;4.18;3.30;;;11.50;93.10;;;;;;5028728;28;20076;-65
2023/01/07 05:44:28;;;;;;;4.40;3.40;;;11.50;93.00;;;;;;5029388;28;20025;-65
2023/01/07 05:46:54;;;;;;;4.70;3.35;;;11.50;93.00;;;;;;5025724;28;20026;-65
2023/01/07 05:49:19;;;;;;;7.63;4.40;;;11.50;92.90;;;;;;5027859;28;20413;-66
2023/01/07 05:51:45;;;;;;;5.05;3.45;;;11.50;92.90;;;;;;5029462;28;20500;-64
2023/01/07 05:54:10;;;;;;;5.57;3.78;;;11.50;92.90;;;;;;5028970;28;20033;-65
2023/01/07 05:56:36;;;;;;;3.88;3.05;;;11.50;92.90;;;;;;5027462;28;20108;-65
2023/01/07 05:59:01;;;;;;;4.43;3.33;;;11.60;93.00;;;;;;5028125;28;20108;-66
2023/01/07 06:01:27;;;;;;;6.85;3.33;;;11.60;92.80;;;;;;5028912;28;20467;-63
2023/01/07 06:03:52;;;;;;;4.70;3.60;;;11.60;92.80;;;;;;5028529;28;20179;-64
2023/01/07 06:06:18;;;;;;;5.47;3.60;;;11.60;92.70;;;;;;5028134;28;20018;-66
2023/01/07 06:08:44;;;;;;;5.78;3.40;;;11.60;92.70;;;;;;5029099;28;20428;-65
2023/01/07 06:11:09;;;;;;;3.75;3.05;;;11.60;92.60;;;;;;5028793;28;20072;-65
2023/01/07 06:13:35;;;;;;;4.85;3.38;;;11.60;92.60;;;;;;5030382;28;20021;-66
2023/01/07 06:16:02;;;;;;;4.63;3.35;;;11.60;92.60;;;;;;5032820;28;20104;-66
2023/01/07 06:18:28;;;;;;;3.80;2.88;;;11.60;92.60;;;;;;5032532;28;20026;-66
2023/01/07 06:20:53;;;;;;;3.60;2.70;;;11.60;92.60;;;;;;5032921;28;20120;-67
2023/01/07 06:23:19;;;;;;;4.40;3.08;;;11.60;92.60;;;;;;5031721;28;20116;-66
2023/01/07 06:25:44;;;;;;;4.05;2.97;;;11.60;92.50;;;;;;5032180;28;20029;-68
2023/01/07 06:28:10;;;;;;;3.72;2.90;;;11.60;92.40;;;;;;5031844;28;20022;-67
2023/01/07 06:30:35;;;;;;;4.95;3.70;;;11.60;92.40;;;;;;5030264;28;20026;-67
2023/01/07 06:33:01;;;;;;;5.40;3.17;;;11.60;92.20;;;;;;5032090;28;20052;-68
2023/01/07 06:35:26;;;;;;;7.40;3.47;;;11.60;92.20;;;;;;5031914;28;20030;-66
2023/01/07 06:37:52;;;;;;;3.83;3.10;;;11.50;92.10;;;;;;5032574;28;20104;-68
2023/01/07 06:40:18;;;;;;;3.80;2.95;;;11.60;92.10;;;;;;5031773;28;20425;-68
2023/01/07 06:42:43;;;;;;;4.93;3.40;;;11.60;92.00;;;;;;5032277;28;20499;-67
2023/01/07 06:45:09;;;;;;;3.72;2.63;;;11.60;91.90;;;;;;5031651;28;20025;-66
2023/01/07 06:47:35;;;;;;;3.30;2.60;;;11.60;91.80;;;;;;5031679;28;20028;-66
2023/01/07 06:50:01;;;;;;;3.72;2.90;;;11.60;91.80;;;;;;5031847;28;20021;-67
2023/01/07 06:52:26;;;;;;;3.33;2.50;;;11.60;91.70;;;;;;5031715;28;20553;-66
2023/01/07 06:54:52;;;;;;;2.47;2.20;;;11.60;91.60;;;;;;5031168;28;20044;-66
2023/01/07 06:57:17;;;;;;;3.78;2.42;;;11.60;91.50;;;;;;5027184;28;20099;-66
2023/01/07 06:59:43;;;;;;;4.63;2.88;;;11.70;91.60;;;;;;5030578;28;20079;-65
2023/01/07 07:02:20;;;;;;;4.88;3.00;;;11.70;91.30;;;;;;5032123;28;20542;-67
2023/01/07 07:04:46;;;;;;;5.70;2.90;;;11.60;91.10;;;;;;5029291;28;20041;-67
2023/01/07 07:07:12;;;;;;;4.88;2.80;;;11.60;90.80;;;;;;5031117;28;20026;-66
2023/01/07 07:09:37;;;;;;;2.83;2.50;;;11.60;90.70;;;;;;5029736;28;20396;-67
2023/01/07 07:12:04;;;;;;;3.33;2.50;;;11.60;90.70;;;;;;5031304;28;20100;-67
2023/01/07 07:14:29;;;;;;;3.92;2.60;;;11.60;90.60;;;;;;5030817;28;20029;-67
2023/01/07 07:16:55;;;;;;;2.72;2.08;;;11.60;90.40;;;;;;5030782;28;20038;-68
2023/01/07 07:19:20;;;;;;;4.13;2.47;;;11.60;90.40;;;;;;5024164;28;20057;-68
2023/01/07 07:21:47;;;;;;;3.55;2.30;;;11.60;90.30;;;;;;5029446;28;20040;-67
2023/01/07 07:24:12;;;;;;;3.38;2.30;;;11.60;90.20;;;;;;5030445;28;20033;-67
2023/01/07 07:26:38;;;;;;;4.05;2.20;;;11.60;90.10;;;;;;5024583;28;20036;-66
2023/01/07 07:29:03;;;;;;;3.88;2.22;;;11.70;90.20;;;;;;5031378;28;20037;-67
2023/01/07 07:31:29;;;;;;;2.72;2.25;;;11.70;89.90;;;;;;5031092;28;20098;-67
2023/01/07 07:33:55;;;;;;;3.70;2.55;;;11.60;89.60;;;;;;5030757;28;20033;-67
2023/01/07 07:36:20;;;;;;;2.80;2.20;;;11.70;89.30;;;;;;5025350;28;20105;-68
2023/01/07 07:38:46;;;;;;;4.00;2.53;;;11.60;89.20;;;;;;5031604;28;20037;-67
2023/01/07 07:41:11;;;;;;;3.40;2.42;;;11.70;88.90;;;;;;5031378;28;20069;-69
2023/01/07 07:43:37;;;;;;;4.47;2.40;;;11.60;88.70;;;;;;5031135;28;20033;-67
2023/01/07 07:46:03;;;;;;;2.30;2.10;;;11.60;88.50;;;;;;5030383;28;20452;-68
2023/01/07 07:48:28;;;;;;;2.13;1.92;;;11.60;88.40;;;;;;5029781;28;20017;-69
2023/01/07 07:50:54;;;;;;;2.72;2.10;;;11.60;88.00;;;;;;5030118;28;20449;-67
2023/01/07 07:53:19;;;;;;;2.15;1.95;;;11.70;88.10;;;;;;5030533;28;20083;-68
2023/01/07 07:55:45;;;;;;;4.63;2.33;;;11.60;87.80;;;;;;5029820;28;20021;-66
2023/01/07 07:58:11;;;;;;;2.67;2.03;;;11.60;87.50;;;;;;5027897;28;20040;-68
2023/01/07 08:00:37;;;;;;;2.47;2.03;;;11.60;87.30;;;;;;5030475;28;20057;-66
2023/01/07 08:03:03;;;;;;;2.47;1.98;;;11.70;87.20;;;;;;5030318;28;20215;-67
2023/01/07 08:05:29;;;;;;;2.55;2.00;;;11.60;86.90;;;;;;5029698;28;20040;-66
2023/01/07 08:07:56;;;;;;;2.33;1.90;;;11.70;86.50;;;;;;5030299;28;20028;-67
2023/01/07 08:10:22;;;;;;;2.00;1.80;;;11.70;86.50;;;;;;5029512;28;20049;-67
2023/01/07 08:12:49;;;;;;;2.28;1.80;;;11.70;86.40;;;;;;5028606;28;20028;-65
2023/01/07 08:15:15;;;;;;;3.10;2.33;;;11.70;86.20;;;;;;5030294;28;20022;-67
2023/01/07 08:17:40;;;;;;;2.13;1.92;;;11.70;86.30;;;;;;5030390;28;20110;-67
2023/01/07 08:20:07;;;;;;;2.70;2.00;;;11.70;85.90;;;;;;5030461;28;20084;-68
2023/01/07 08:22:33;;;;;;;3.40;2.15;;;11.70;85.70;;;;;;5027058;28;20045;-68
2023/01/07 08:24:59;;;;;;;3.95;2.03;;;11.70;85.80;;;;;;5030207;28;20373;-68
2023/01/07 08:27:28;;;;;;;2.67;1.98;;;11.70;85.70;;;;;;5029013;28;20029;-68
2023/01/07 08:29:55;;;;;;;3.72;1.92;;;11.70;85.50;;;;;;5030285;28;20030;-67
2023/01/07 08:32:20;;;;;;;2.78;1.60;;;11.70;85.50;;;;;;5030492;28;20471;-68
2023/01/07 08:34:47;;;;;;;2.42;1.77;;;11.70;85.50;;;;;;5023242;28;20033;-66
2023/01/07 08:37:13;;;;;;;1.98;1.73;;;11.70;85.40;;;;;;5027972;28;20043;-66
2023/01/07 08:39:39;;;;;;;3.95;2.33;;;11.70;85.50;;;;;;5030125;28;20017;-66
2023/01/07 08:42:04;;;;;;;2.30;2.10;;;11.70;85.20;;;;;;5029564;28;20032;-66
2023/01/07 08:44:31;;;;;;;2.28;2.03;;;11.70;85.10;;;;;;5028262;28;20108;-67
2023/01/07 08:46:56;;;;;;;3.38;2.15;;;11.80;85.10;;;;;;5027608;28;20132;-66
2023/01/07 08:49:22;;;;;;;3.10;2.10;;;11.80;84.90;;;;;;5029114;28;20554;-68
2023/01/07 08:51:48;;;;;;;2.03;1.83;;;11.80;84.80;;;;;;5029988;28;20443;-67
2023/01/07 08:54:13;;;;;;;1.98;1.85;;;11.80;84.80;;;;;;5027301;28;20043;-67
2023/01/07 08:56:39;;;;;;;2.13;1.90;;;11.80;84.90;;;;;;5026137;28;20048;-65
2023/01/07 08:59:04;;;;;;;2.28;1.90;;;11.80;84.90;;;;;;5024050;28;20057;-65
2023/01/07 09:01:30;;;;;;;2.28;2.08;;;11.80;84.70;;;;;;5024287;28;20101;-67
2023/01/07 09:03:55;;;;;;;3.65;2.28;;;11.80;84.40;;;;;;5027947;28;20030;-67
2023/01/07 09:06:22;;;;;;;3.20;1.80;;;11.80;84.20;;;;;;5027890;28;20624;-66
2023/01/07 09:08:48;;;;;;;2.20;2.00;;;11.90;84.40;;;;;;5027547;28;20025;-66
2023/01/07 09:11:14;;;;;;;3.08;2.05;;;11.90;84.00;;;;;;5027106;28;20018;-67
2023/01/07 09:13:40;;;;;;;4.15;1.98;;;11.80;83.60;;;;;;5029869;28;20020;-68
2023/01/07 09:16:05;;;;;;;2.70;2.00;;;11.90;83.70;;;;;;5028425;28;20091;-67
2023/01/07 09:18:31;;;;;;;2.72;2.08;;;11.80;83.30;;;;;;5029590;28;20064;-67
2023/01/07 09:20:56;;;;;;;2.67;1.83;;;11.80;83.00;;;;;;5025833;28;20034;-67
2023/01/07 09:23:22;;;;;;;3.22;2.05;;;11.90;83.20;;;;;;5028960;28;20029;-66
2023/01/07 09:25:48;;;;;;;2.03;1.60;;;11.90;83.10;;;;;;5028174;28;20040;-64
2023/01/07 09:28:13;;;;;;;2.97;2.42;;;11.90;83.20;;;;;;5027818;28;20030;-66
2023/01/07 09:30:39;;;;;;;4.88;2.35;;;11.90;82.80;;;;;;5027031;28;20071;-68
2023/01/07 09:33:04;;;;;;;1.90;1.80;;;11.90;82.50;;;;;;5027462;28;20101;-65
2023/01/07 09:35:30;;;;;;;2.13;1.90;;;11.90;82.50;;;;;;5028082;28;20037;-65
2023/01/07 09:37:55;;;;;;;2.38;2.00;;;11.90;82.80;;;;;;5028522;28;20056;-67
2023/01/07 09:40:35;;;;;;;2.35;1.85;;;12.00;82.70;;;;;;5028363;28;20100;-67
2023/01/07 09:43:00;;;;;;;2.50;2.30;;;12.00;82.50;;;;;;5024409;28;20035;-65
2023/01/07 09:45:32;;;;;;;3.22;1.90;;;12.00;82.40;;;;;;5029574;28;20026;-68
2023/01/07 09:48:01;;;;;;;2.33;1.90;;;12.00;82.10;;;;;;5024681;28;20109;-66
2023/01/07 09:50:38;;;;;;;1.80;1.70;;;12.00;82.00;;;;;;5025773;28;20033;-69
2023/01/07 09:53:11;;;;;;;2.83;2.08;;;12.00;82.10;;;;;;5031866;28;20072;-67
2023/01/07 09:55:40;;;;;;;4.88;2.00;;;11.90;81.90;;;;;;5040049;28;20379;-69
2023/01/07 09:58:13;;;;;;;2.72;1.98;;;11.90;81.90;;;;;;5029236;28;20026;-68
2023/01/07 10:00:51;;;;;;;3.90;2.60;;;12.00;81.90;;;;;;5025595;28;20030;-67
2023/01/07 10:03:26;;;;;;;3.72;2.20;;;12.10;81.80;;;;;;5031017;28;20042;-67
2023/01/07 10:05:59;;;;;;;2.10;1.90;;;12.10;81.10;;;;;;5030706;28;20040;-66
2023/01/07 10:08:43;;;;;;;2.92;2.45;;;12.10;81.10;;;;;;5029596;28;20029;-67
2023/01/07 10:11:51;;;;;;;3.53;2.13;;;12.00;80.30;;;;;;5027885;28;20495;-67
2023/01/07 10:14:44;;;;;;;2.45;1.98;;;12.10;80.20;;;;;;5023851;28;20021;-68
2023/01/07 10:17:26;;;;;;;2.65;2.13;;;12.10;80.30;;;;;;5027285;28;20037;-66
2023/01/07 10:20:15;;;;;;;4.07;2.42;;;12.10;80.20;;;;;;5032792;28;20105;-66
2023/01/07 10:22:51;;;;;;;2.90;1.90;;;12.10;79.80;;;;;;5032589;28;20026;-64
2023/01/07 10:25:48;;;;;;;2.80;1.98;;;12.10;79.60;;;;;;5032082;28;20040;-65
2023/01/07 10:28:24;;;;;;;3.13;1.98;;;12.20;79.40;;;;;;5027686;28;20479;-67
2023/01/07 10:30:53;;;;;;;2.47;1.80;;;12.20;78.60;;;;;;5032971;28;20036;-67
2023/01/07 10:33:25;;;;;;;2.22;1.80;;;12.20;78.30;;;;;;5031417;28;20139;-66
2023/01/07 10:36:25;;;;;;;2.25;1.67;;;12.10;78.20;;;;;;5031176;28;20098;-65
2023/01/07 10:39:11;;;;;;;2.15;1.60;;;12.20;78.20;;;;;;5024569;28;20738;-66
2023/01/07 10:42:08;;;;;;;2.22;1.70;;;12.20;77.80;;;;;;5030172;28;20480;-67
2023/01/07 10:44:56;;;;;;;1.60;1.40;;;12.30;78.10;;;;;;5030931;28;20095;-67
2023/01/07 10:47:43;;;;;;;2.28;1.50;;;12.30;77.80;;;;;;5031875;28;20431;-65
2023/01/07 10:50:35;;;;;;;2.47;1.35;;;12.40;77.50;;;;;;5031814;28;20044;-66
2023/01/07 10:53:13;;;;;;;2.22;1.50;;;12.40;77.10;;;;;;5030507;28;20109;-66
2023/01/07 10:55:48;;;;;;;2.75;1.50;;;12.50;76.80;;;;;;5031721;28;20076;-66
2023/01/07 10:58:14;;;;;;;3.15;1.20;;;12.50;76.60;;;;;;5031489;28;20021;-66
2023/01/07 11:00:40;;;;;;;1.80;1.40;;;12.60;75.50;;;;;;5031385;28;20030;-66
2023/01/07 11:03:21;;;;;;;2.03;1.35;;;12.60;75.10;;;;;;5027840;28;20518;-65
2023/01/07 11:05:55;;;;;;;1.45;1.30;;;12.70;74.80;;;;;;5027739;28;20033;-65
2023/01/07 11:08:48;;;;;;;2.60;1.48;;;12.70;74.60;;;;;;5030702;28;20053;-65
2023/01/07 11:11:18;;;;;;;1.67;1.58;;;12.70;74.50;;;;;;5030572;28;20037;-66
2023/01/07 11:13:56;;;;;;;2.22;1.73;;;12.80;74.70;;;;;;5027217;28;20037;-67
2023/01/07 11:16:27;;;;;;;1.88;1.70;;;12.80;74.10;;;;;;5029406;28;20047;-66
2023/01/07 11:18:59;;;;;;;3.50;1.77;;;12.80;74.00;;;;;;5031143;28;20090;-67
2023/01/07 11:21:31;;;;;;;1.98;1.70;;;12.90;73.80;;;;;;5031328;28;20105;-64
2023/01/07 11:23:57;;;;;;;3.42;1.80;;;12.90;73.40;;;;;;5031437;28;20025;-68
2023/01/07 11:26:25;;;;;;;2.75;1.77;;;12.90;73.30;;;;;;5030828;28;20484;-67
2023/01/07 11:29:21;;;;;;;1.48;1.38;;;13.00;72.70;;;;;;5031112;28;20373;-68
2023/01/07 11:32:05;;;;;;;1.85;1.45;;;12.90;72.20;;;;;;5031012;28;20037;-67
2023/01/07 11:34:33;;;;;;;1.60;1.23;;;12.90;72.30;;;;;;5026759;28;20014;-67
2023/01/07 11:36:59;;;;;;;1.45;1.30;;;12.90;72.00;;;;;;5028877;28;20550;-67
2023/01/07 11:39:33;;;;;;;1.52;1.30;;;13.00;71.60;;;;;;5030906;28;20419;-67
2023/01/07 11:42:37;;;;;;;1.52;1.42;;;13.00;71.80;;;;;;5031350;28;20033;-66
2023/01/07 11:45:13;;;;;;;1.58;1.30;;;13.10;71.60;;;;;;5030440;28;20059;-64
2023/01/07 11:47:52;;;;;;;2.25;1.40;;;13.10;70.60;;;;;;5030933;28;20021;-67
2023/01/07 11:50:33;;;;;;;1.45;1.23;;;13.10;70.40;;;;;;5030661;28;20067;-68
2023/01/07 11:53:13;;;;;;;1.70;1.40;;;13.10;70.00;;;;;;5030903;28;20026;-67
2023/01/07 11:56:00;;;;;;;1.35;1.25;;;13.10;69.70;;;;;;5030004;28;20030;-67
2023/01/07 11:58:28;;;;;;;1.67;1.40;;;13.10;69.60;;;;;;5027548;28;20041;-66
2023/01/07 12:01:23;;;;;;;2.03;1.40;;;13.10;69.10;;;;;;5029367;28;20120;-68
2023/01/07 12:03:52;;;;;;;1.52;1.33;;;13.20;70.00;;;;;;5029975;28;20392;-67
2023/01/07 12:06:29;;;;;;;1.52;1.42;;;13.20;69.20;;;;;;5028989;28;20025;-67
2023/01/07 12:09:20;;;;;;;1.83;1.60;;;13.30;68.80;;;;;;5029626;28;20108;-67
2023/01/07 12:11:46;;;;;;;1.97;1.63;;;13.20;67.80;;;;;;5027347;28;20021;-66
2023/01/07 12:14:30;;;;;;;2.10;1.70;;;13.20;67.80;;;;;;5029883;28;20287;-65
2023/01/07 12:17:14;;;;;;;2.35;2.15;;;13.30;68.60;;;;;;5028762;28;20029;-62
2023/01/07 12:19:43;;;;;;;2.20;2.00;;;13.30;68.20;;;;;;5028315;28;20018;-66
2023/01/07 12:22:37;;;;;;;2.70;1.70;;;13.40;68.40;;;;;;5029416;28;20053;-66
2023/01/07 12:25:33;;;;;;;3.53;2.10;;;13.40;67.60;;;;;;5026487;28;20043;-67
2023/01/07 12:28:25;;;;;;;2.15;1.80;;;13.40;67.10;;;;;;5026524;28;20112;-67
2023/01/07 12:31:07;;;;;;;2.33;1.77;;;13.40;67.40;;;;;;5022059;28;20041;-67
2023/01/07 12:33:44;;;;;;;2.40;1.75;;;13.50;67.00;;;;;;5026748;28;20025;-67
2023/01/07 12:36:32;;;;;;;2.70;1.60;;;13.70;67.00;;;;;;5025865;28;20532;-65
2023/01/07 12:39:02;;;;;;;2.42;1.70;;;14.30;65.70;;;;;;5026799;28;20431;-67
2023/01/07 12:41:36;;;;;;;2.22;1.50;;;15.10;63.00;;;;;;5025645;28;20104;-66
2023/01/07 12:44:08;;;;;;;3.00;1.77;;;15.40;62.20;;;;;;5027967;28;20040;-65
2023/01/07 12:47:06;;;;;;;2.05;1.80;;;15.80;60.70;;;;;;5027446;28;20108;-64
2023/01/07 12:49:38;;;;;;;3.85;1.90;;;15.90;59.70;;;;;;5020722;28;20071;-65
2023/01/07 12:52:16;;;;;;;1.95;1.80;;;15.70;58.70;;;;;;5023100;28;20049;-65
2023/01/07 12:55:00;;;;;;;2.33;1.70;;;15.40;59.00;;;;;;5028315;28;20029;-66
2023/01/07 12:57:38;;;;;;;1.70;1.60;;;15.30;60.20;;;;;;5017956;28;20970;-65
2023/01/07 13:00:14;;;;;;;1.50;1.40;;;15.40;60.10;;;;;;5021990;28;20036;-67
2023/01/07 13:02:47;;;;;;;1.85;1.48;;;15.50;60.20;;;;;;5026472;28;20029;-65
2023/01/07 13:05:44;;;;;;;2.28;1.90;;;15.70;60.00;;;;;;5027689;28;20026;-65